sensor_id;sensor_type;location;lat;lon;timestamp;pressure;altitude;pressure_sealevel;temperature;humidity
78751;BME280;68070;50.954;11.060;2023-05-07T00:02:24;99341.55;;;10.37;80.67
78751;BME280;68070;50.954;11.060;2023-05-07T00:05:09;99345.40;;;10.41;80.75
78751;BME280;68070;50.954;11.060;2023-05-07T00:07:54;99348.48;;;10.40;80.55
78751;BME280;68070;50.954;11.060;2023-05-07T00:10:38;99354.38;;;10.37;80.26
78751;BME280;68070;50.954;11.060;2023-05-07T00:13:23;99358.48;;;10.34;80.68
78751;BME280;68070;50.954;11.060;2023-05-07T00:16:07;99357.77;;;10.37;80.29
78751;BME280;68070;50.954;11.060;2023-05-07T00:18:52;99360.92;;;10.33;80.74
78751;BME280;68070;50.954;11.060;2023-05-07T00:21:36;99360.82;;;10.32;80.86
78751;BME280;68070;50.954;11.060;2023-05-07T00:24:21;99358.20;;;10.25;81.54
78751;BME280;68070;50.954;11.060;2023-05-07T00:27:05;99357.01;;;10.22;80.95
78751;BME280;68070;50.954;11.060;2023-05-07T00:29:50;99363.47;;;10.21;81.32
78751;BME280;68070;50.954;11.060;2023-05-07T00:32:34;99363.54;;;10.19;80.98
78751;BME280;68070;50.954;11.060;2023-05-07T00:35:19;99366.30;;;10.21;81.32
78751;BME280;68070;50.954;11.060;2023-05-07T00:38:03;99367.05;;;10.17;82.06
78751;BME280;68070;50.954;11.060;2023-05-07T00:40:48;99366.95;;;10.14;81.77
78751;BME280;68070;50.954;11.060;2023-05-07T00:43:32;99369.52;;;10.10;82.33
78751;BME280;68070;50.954;11.060;2023-05-07T00:46:17;99369.67;;;10.10;82.21
78751;BME280;68070;50.954;11.060;2023-05-07T00:49:02;99363.89;;;10.12;82.65
78751;BME280;68070;50.954;11.060;2023-05-07T00:51:47;99365.54;;;10.06;82.90
78751;BME280;68070;50.954;11.060;2023-05-07T00:54:32;99361.56;;;10.09;82.11
78751;BME280;68070;50.954;11.060;2023-05-07T00:57:17;99359.54;;;10.10;81.95
78751;BME280;68070;50.954;11.060;2023-05-07T01:00:03;99358.06;;;10.14;81.92
78751;BME280;68070;50.954;11.060;2023-05-07T01:02:47;99359.60;;;10.14;81.77
78751;BME280;68070;50.954;11.060;2023-05-07T01:05:32;99360.30;;;10.12;82.17
78751;BME280;68070;50.954;11.060;2023-05-07T01:08:17;99359.88;;;10.08;81.98
78751;BME280;68070;50.954;11.060;2023-05-07T01:11:02;99357.64;;;10.12;81.48
78751;BME280;68070;50.954;11.060;2023-05-07T01:13:49;99359.52;;;10.16;81.68
78751;BME280;68070;50.954;11.060;2023-05-07T01:16:34;99356.24;;;10.12;82.61
78751;BME280;68070;50.954;11.060;2023-05-07T01:19:19;99364.95;;;10.09;82.79
78751;BME280;68070;50.954;11.060;2023-05-07T01:22:08;99363.02;;;10.06;83.35
78751;BME280;68070;50.954;11.060;2023-05-07T01:25:01;99363.40;;;10.09;82.53
78751;BME280;68070;50.954;11.060;2023-05-07T01:27:45;99358.10;;;10.08;82.50
78751;BME280;68070;50.954;11.060;2023-05-07T01:30:30;99356.52;;;10.05;82.31
78751;BME280;68070;50.954;11.060;2023-05-07T01:33:19;99349.58;;;10.05;81.61
78751;BME280;68070;50.954;11.060;2023-05-07T01:36:06;99353.24;;;10.11;81.93
78751;BME280;68070;50.954;11.060;2023-05-07T01:38:53;99356.40;;;10.14;81.42
78751;BME280;68070;50.954;11.060;2023-05-07T01:41:37;99352.11;;;10.17;81.72
78751;BME280;68070;50.954;11.060;2023-05-07T01:44:23;99351.66;;;10.16;81.72
78751;BME280;68070;50.954;11.060;2023-05-07T01:47:08;99349.46;;;10.12;81.43
78751;BME280;68070;50.954;11.060;2023-05-07T01:49:54;99349.83;;;10.12;81.71
78751;BME280;68070;50.954;11.060;2023-05-07T01:52:39;99350.27;;;10.08;81.58
78751;BME280;68070;50.954;11.060;2023-05-07T01:55:24;99351.06;;;10.07;81.28
78751;BME280;68070;50.954;11.060;2023-05-07T01:58:08;99345.95;;;10.04;81.68
78751;BME280;68070;50.954;11.060;2023-05-07T02:00:53;99340.95;;;10.07;81.72
78751;BME280;68070;50.954;11.060;2023-05-07T02:03:37;99341.02;;;10.03;82.09
78751;BME280;68070;50.954;11.060;2023-05-07T02:06:25;99338.81;;;10.02;81.93
78751;BME280;68070;50.954;11.060;2023-05-07T02:09:14;99344.33;;;10.01;81.46
78751;BME280;68070;50.954;11.060;2023-05-07T02:12:00;99343.39;;;10.02;81.28
78751;BME280;68070;50.954;11.060;2023-05-07T02:14:45;99338.95;;;10.04;81.53
78751;BME280;68070;50.954;11.060;2023-05-07T02:17:30;99340.52;;;10.05;81.66
78751;BME280;68070;50.954;11.060;2023-05-07T02:20:16;99345.79;;;10.03;81.93
78751;BME280;68070;50.954;11.060;2023-05-07T02:23:00;99342.45;;;9.97;82.46
78751;BME280;68070;50.954;11.060;2023-05-07T02:25:45;99336.03;;;9.92;82.64
78751;BME280;68070;50.954;11.060;2023-05-07T02:28:30;99345.79;;;9.98;82.46
78751;BME280;68070;50.954;11.060;2023-05-07T02:31:17;99341.46;;;9.96;82.44
78751;BME280;68070;50.954;11.060;2023-05-07T02:34:02;99340.98;;;9.98;82.03
78751;BME280;68070;50.954;11.060;2023-05-07T02:36:47;99348.65;;;10.01;81.87
78751;BME280;68070;50.954;11.060;2023-05-07T02:39:33;99352.02;;;10.03;81.47
78751;BME280;68070;50.954;11.060;2023-05-07T02:42:18;99353.52;;;10.04;82.11
78751;BME280;68070;50.954;11.060;2023-05-07T02:45:03;99348.85;;;9.98;83.07
78751;BME280;68070;50.954;11.060;2023-05-07T02:47:47;99347.83;;;9.94;82.45
78751;BME280;68070;50.954;11.060;2023-05-07T02:50:32;99350.02;;;9.93;82.09
78751;BME280;68070;50.954;11.060;2023-05-07T02:53:17;99347.58;;;9.95;81.93
78751;BME280;68070;50.954;11.060;2023-05-07T02:56:01;99345.11;;;9.98;82.17
78751;BME280;68070;50.954;11.060;2023-05-07T02:58:46;99341.27;;;9.94;82.12
78751;BME280;68070;50.954;11.060;2023-05-07T03:01:30;99343.34;;;9.89;82.09
78751;BME280;68070;50.954;11.060;2023-05-07T03:04:23;99341.83;;;9.88;81.87
78751;BME280;68070;50.954;11.060;2023-05-07T03:07:07;99339.02;;;9.90;82.26
78751;BME280;68070;50.954;11.060;2023-05-07T03:09:51;99339.80;;;9.92;82.38
78751;BME280;68070;50.954;11.060;2023-05-07T03:12:36;99341.97;;;9.86;83.02
78751;BME280;68070;50.954;11.060;2023-05-07T03:15:21;99339.06;;;9.81;82.48
78751;BME280;68070;50.954;11.060;2023-05-07T03:18:05;99341.57;;;9.84;82.53
78751;BME280;68070;50.954;11.060;2023-05-07T03:20:51;99342.98;;;9.79;82.85
78751;BME280;68070;50.954;11.060;2023-05-07T03:23:36;99339.35;;;9.77;82.75
78751;BME280;68070;50.954;11.060;2023-05-07T03:26:20;99337.81;;;9.71;82.75
78751;BME280;68070;50.954;11.060;2023-05-07T03:29:05;99339.59;;;9.71;82.99
78751;BME280;68070;50.954;11.060;2023-05-07T03:31:49;99337.61;;;9.72;82.73
78751;BME280;68070;50.954;11.060;2023-05-07T03:34:33;99339.48;;;9.70;82.26
78751;BME280;68070;50.954;11.060;2023-05-07T03:37:18;99336.25;;;9.67;82.73
78751;BME280;68070;50.954;11.060;2023-05-07T03:40:03;99338.61;;;9.62;83.44
78751;BME280;68070;50.954;11.060;2023-05-07T03:42:49;99340.38;;;9.64;82.77
78751;BME280;68070;50.954;11.060;2023-05-07T03:45:35;99344.41;;;9.68;82.69
78751;BME280;68070;50.954;11.060;2023-05-07T03:48:26;99347.99;;;9.64;82.52
78751;BME280;68070;50.954;11.060;2023-05-07T03:51:11;99345.52;;;9.64;82.32
78751;BME280;68070;50.954;11.060;2023-05-07T03:53:56;99349.48;;;9.66;82.43
78751;BME280;68070;50.954;11.060;2023-05-07T03:56:41;99355.86;;;9.70;82.60
78751;BME280;68070;50.954;11.060;2023-05-07T03:59:26;99359.70;;;9.65;82.70
78751;BME280;68070;50.954;11.060;2023-05-07T04:02:10;99361.26;;;9.60;82.74
78751;BME280;68070;50.954;11.060;2023-05-07T04:04:55;99363.11;;;9.64;82.39
78751;BME280;68070;50.954;11.060;2023-05-07T04:07:39;99362.75;;;9.62;82.65
78751;BME280;68070;50.954;11.060;2023-05-07T04:10:25;99363.39;;;9.63;82.49
78751;BME280;68070;50.954;11.060;2023-05-07T04:13:11;99366.56;;;9.61;82.66
78751;BME280;68070;50.954;11.060;2023-05-07T04:15:56;99366.04;;;9.66;82.04
78751;BME280;68070;50.954;11.060;2023-05-07T04:18:41;99370.94;;;9.70;82.03
78751;BME280;68070;50.954;11.060;2023-05-07T04:21:26;99375.73;;;9.70;82.42
78751;BME280;68070;50.954;11.060;2023-05-07T04:24:10;99378.50;;;9.66;81.96
78751;BME280;68070;50.954;11.060;2023-05-07T04:26:54;99384.15;;;9.69;81.48
78751;BME280;68070;50.954;11.060;2023-05-07T04:29:39;99379.58;;;9.74;81.97
78751;BME280;68070;50.954;11.060;2023-05-07T04:32:29;99383.88;;;9.76;81.82
78751;BME280;68070;50.954;11.060;2023-05-07T04:35:13;99385.48;;;9.76;81.65
78751;BME280;68070;50.954;11.060;2023-05-07T04:37:59;99388.17;;;9.76;81.28
78751;BME280;68070;50.954;11.060;2023-05-07T04:40:44;99394.92;;;9.78;81.05
78751;BME280;68070;50.954;11.060;2023-05-07T04:43:31;99398.09;;;9.82;80.91
78751;BME280;68070;50.954;11.060;2023-05-07T04:46:15;99395.95;;;9.81;80.90
78751;BME280;68070;50.954;11.060;2023-05-07T04:49:00;99395.20;;;9.79;80.36
78751;BME280;68070;50.954;11.060;2023-05-07T04:51:44;99398.23;;;9.79;80.28
78751;BME280;68070;50.954;11.060;2023-05-07T04:54:29;99401.18;;;9.83;80.45
78751;BME280;68070;50.954;11.060;2023-05-07T04:57:14;99399.65;;;9.85;80.46
78751;BME280;68070;50.954;11.060;2023-05-07T04:59:59;99398.66;;;9.84;80.08
78751;BME280;68070;50.954;11.060;2023-05-07T05:02:43;99396.45;;;9.85;79.90
78751;BME280;68070;50.954;11.060;2023-05-07T05:05:28;99402.67;;;9.87;79.41
78751;BME280;68070;50.954;11.060;2023-05-07T05:08:13;99411.12;;;9.91;79.86
78751;BME280;68070;50.954;11.060;2023-05-07T05:11:01;99415.45;;;9.93;79.88
78751;BME280;68070;50.954;11.060;2023-05-07T05:13:46;99412.13;;;9.89;80.27
78751;BME280;68070;50.954;11.060;2023-05-07T05:16:35;99415.67;;;9.90;80.56
78751;BME280;68070;50.954;11.060;2023-05-07T05:19:19;99418.15;;;9.92;80.02
78751;BME280;68070;50.954;11.060;2023-05-07T05:22:04;99417.02;;;10.00;80.38
78751;BME280;68070;50.954;11.060;2023-05-07T05:24:48;99417.04;;;9.99;80.39
78751;BME280;68070;50.954;11.060;2023-05-07T05:27:33;99418.38;;;9.94;80.85
78751;BME280;68070;50.954;11.060;2023-05-07T05:30:18;99420.09;;;9.93;80.39
78751;BME280;68070;50.954;11.060;2023-05-07T05:33:03;99424.24;;;10.03;80.65
78751;BME280;68070;50.954;11.060;2023-05-07T05:35:49;99425.30;;;10.06;81.14
78751;BME280;68070;50.954;11.060;2023-05-07T05:38:34;99426.88;;;10.01;81.27
78751;BME280;68070;50.954;11.060;2023-05-07T05:41:18;99427.54;;;9.93;81.35
78751;BME280;68070;50.954;11.060;2023-05-07T05:44:03;99427.59;;;9.98;81.04
78751;BME280;68070;50.954;11.060;2023-05-07T05:46:48;99432.85;;;10.04;81.13
78751;BME280;68070;50.954;11.060;2023-05-07T05:49:34;99434.39;;;10.03;81.17
78751;BME280;68070;50.954;11.060;2023-05-07T05:52:20;99431.02;;;10.05;80.34
78751;BME280;68070;50.954;11.060;2023-05-07T05:55:08;99437.56;;;10.11;80.39
78751;BME280;68070;50.954;11.060;2023-05-07T05:57:53;99435.76;;;10.17;80.55
78751;BME280;68070;50.954;11.060;2023-05-07T06:00:38;99433.75;;;10.17;80.50
78751;BME280;68070;50.954;11.060;2023-05-07T06:03:23;99439.44;;;10.15;80.53
78751;BME280;68070;50.954;11.060;2023-05-07T06:06:08;99436.89;;;10.13;81.18
78751;BME280;68070;50.954;11.060;2023-05-07T06:08:52;99443.65;;;10.16;80.62
78751;BME280;68070;50.954;11.060;2023-05-07T06:11:40;99442.56;;;10.13;80.74
78751;BME280;68070;50.954;11.060;2023-05-07T06:14:25;99446.42;;;10.09;80.81
78751;BME280;68070;50.954;11.060;2023-05-07T06:17:12;99452.11;;;10.09;80.69
78751;BME280;68070;50.954;11.060;2023-05-07T06:19:57;99456.40;;;10.09;80.98
78751;BME280;68070;50.954;11.060;2023-05-07T06:22:41;99462.77;;;10.06;80.96
78751;BME280;68070;50.954;11.060;2023-05-07T06:25:27;99467.19;;;9.96;80.73
78751;BME280;68070;50.954;11.060;2023-05-07T06:28:11;99474.41;;;9.89;81.28
78751;BME280;68070;50.954;11.060;2023-05-07T06:31:11;99477.02;;;9.89;81.10
78751;BME280;68070;50.954;11.060;2023-05-07T06:33:55;99474.43;;;9.83;81.58
78751;BME280;68070;50.954;11.060;2023-05-07T06:36:41;99469.75;;;9.78;81.35
78751;BME280;68070;50.954;11.060;2023-05-07T06:39:44;99467.90;;;9.82;81.48
78751;BME280;68070;50.954;11.060;2023-05-07T06:42:28;99466.55;;;9.87;81.56
78751;BME280;68070;50.954;11.060;2023-05-07T06:45:17;99468.70;;;9.86;81.38
78751;BME280;68070;50.954;11.060;2023-05-07T06:48:01;99470.30;;;9.84;81.46
78751;BME280;68070;50.954;11.060;2023-05-07T06:50:48;99474.98;;;9.86;81.36
78751;BME280;68070;50.954;11.060;2023-05-07T06:53:33;99480.57;;;9.90;81.79
78751;BME280;68070;50.954;11.060;2023-05-07T06:56:18;99482.38;;;9.89;81.41
78751;BME280;68070;50.954;11.060;2023-05-07T06:59:04;99486.48;;;9.84;81.32
78751;BME280;68070;50.954;11.060;2023-05-07T07:01:51;99486.97;;;9.84;81.03
78751;BME280;68070;50.954;11.060;2023-05-07T07:04:36;99490.43;;;9.86;81.61
78751;BME280;68070;50.954;11.060;2023-05-07T07:07:23;99491.99;;;9.86;81.45
78751;BME280;68070;50.954;11.060;2023-05-07T07:10:09;99493.81;;;9.88;81.08
78751;BME280;68070;50.954;11.060;2023-05-07T07:12:54;99497.42;;;9.88;81.08
78751;BME280;68070;50.954;11.060;2023-05-07T07:15:39;99497.86;;;9.94;81.25
78751;BME280;68070;50.954;11.060;2023-05-07T07:18:23;99499.33;;;9.97;81.23
78751;BME280;68070;50.954;11.060;2023-05-07T07:21:08;99499.56;;;9.96;81.11
78751;BME280;68070;50.954;11.060;2023-05-07T07:23:53;99501.66;;;9.99;80.58
78751;BME280;68070;50.954;11.060;2023-05-07T07:26:37;99501.92;;;10.03;81.14
78751;BME280;68070;50.954;11.060;2023-05-07T07:29:24;99504.95;;;10.09;81.08
78751;BME280;68070;50.954;11.060;2023-05-07T07:32:11;99506.52;;;10.12;80.10
78751;BME280;68070;50.954;11.060;2023-05-07T07:34:55;99507.77;;;10.06;79.98
78751;BME280;68070;50.954;11.060;2023-05-07T07:37:40;99506.60;;;10.08;80.11
78751;BME280;68070;50.954;11.060;2023-05-07T07:40:25;99510.60;;;10.17;79.97
78751;BME280;68070;50.954;11.060;2023-05-07T07:43:09;99505.67;;;10.14;79.70
78751;BME280;68070;50.954;11.060;2023-05-07T07:45:54;99506.37;;;10.17;79.76
78751;BME280;68070;50.954;11.060;2023-05-07T07:48:39;99503.84;;;10.26;79.31
78751;BME280;68070;50.954;11.060;2023-05-07T07:51:23;99498.74;;;10.33;79.56
78751;BME280;68070;50.954;11.060;2023-05-07T07:54:08;99497.56;;;10.35;79.38
78751;BME280;68070;50.954;11.060;2023-05-07T07:56:53;99501.40;;;10.36;79.55
78751;BME280;68070;50.954;11.060;2023-05-07T07:59:38;99497.80;;;10.42;79.08
78751;BME280;68070;50.954;11.060;2023-05-07T08:02:24;99499.35;;;10.46;79.29
78751;BME280;68070;50.954;11.060;2023-05-07T08:05:08;99505.65;;;10.45;79.11
78751;BME280;68070;50.954;11.060;2023-05-07T08:07:53;99509.91;;;10.34;79.28
78751;BME280;68070;50.954;11.060;2023-05-07T08:10:42;99511.88;;;10.29;79.09
78751;BME280;68070;50.954;11.060;2023-05-07T08:13:33;99509.19;;;10.32;78.74
78751;BME280;68070;50.954;11.060;2023-05-07T08:16:17;99503.49;;;10.39;79.27
78751;BME280;68070;50.954;11.060;2023-05-07T08:19:02;99505.45;;;10.42;79.20
78751;BME280;68070;50.954;11.060;2023-05-07T08:21:46;99510.26;;;10.40;78.89
78751;BME280;68070;50.954;11.060;2023-05-07T08:24:32;99517.61;;;10.31;78.94
78751;BME280;68070;50.954;11.060;2023-05-07T08:27:17;99517.14;;;10.30;78.74
78751;BME280;68070;50.954;11.060;2023-05-07T08:30:02;99514.11;;;10.30;78.86
78751;BME280;68070;50.954;11.060;2023-05-07T08:32:48;99515.17;;;10.33;78.64
78751;BME280;68070;50.954;11.060;2023-05-07T08:35:33;99516.63;;;10.40;78.39
78751;BME280;68070;50.954;11.060;2023-05-07T08:38:18;99519.57;;;10.46;78.12
78751;BME280;68070;50.954;11.060;2023-05-07T08:41:02;99525.76;;;10.55;78.76
78751;BME280;68070;50.954;11.060;2023-05-07T08:43:48;99524.50;;;10.61;78.43
78751;BME280;68070;50.954;11.060;2023-05-07T08:46:34;99524.76;;;10.57;78.23
78751;BME280;68070;50.954;11.060;2023-05-07T08:49:20;99517.98;;;10.51;77.87
78751;BME280;68070;50.954;11.060;2023-05-07T08:52:05;99524.70;;;10.50;78.13
78751;BME280;68070;50.954;11.060;2023-05-07T08:54:51;99529.58;;;10.51;78.29
78751;BME280;68070;50.954;11.060;2023-05-07T08:57:36;99533.00;;;10.53;78.37
78751;BME280;68070;50.954;11.060;2023-05-07T09:00:20;99531.23;;;10.48;78.21
78751;BME280;68070;50.954;11.060;2023-05-07T09:03:07;99531.09;;;10.52;77.87
78751;BME280;68070;50.954;11.060;2023-05-07T09:05:51;99536.12;;;10.65;78.45
78751;BME280;68070;50.954;11.060;2023-05-07T09:08:37;99541.91;;;10.74;78.22
78751;BME280;68070;50.954;11.060;2023-05-07T09:11:22;99542.77;;;10.80;77.79
78751;BME280;68070;50.954;11.060;2023-05-07T09:14:07;99542.90;;;10.81;77.24
78751;BME280;68070;50.954;11.060;2023-05-07T09:16:54;99542.90;;;10.81;77.22
78751;BME280;68070;50.954;11.060;2023-05-07T09:19:39;99540.88;;;10.87;77.19
78751;BME280;68070;50.954;11.060;2023-05-07T09:22:24;99544.52;;;10.80;77.33
78751;BME280;68070;50.954;11.060;2023-05-07T09:25:14;99542.84;;;10.73;77.18
78751;BME280;68070;50.954;11.060;2023-05-07T09:28:00;99540.99;;;10.75;77.13
78751;BME280;68070;50.954;11.060;2023-05-07T09:30:45;99533.96;;;10.79;77.37
78751;BME280;68070;50.954;11.060;2023-05-07T09:33:30;99542.66;;;10.87;76.81
78751;BME280;68070;50.954;11.060;2023-05-07T09:36:15;99543.88;;;10.82;76.51
78751;BME280;68070;50.954;11.060;2023-05-07T09:39:00;99546.25;;;10.84;76.40
78751;BME280;68070;50.954;11.060;2023-05-07T09:41:46;99552.20;;;10.88;75.96
78751;BME280;68070;50.954;11.060;2023-05-07T09:44:37;99547.61;;;10.93;76.21
78751;BME280;68070;50.954;11.060;2023-05-07T09:47:24;99546.39;;;10.98;75.89
78751;BME280;68070;50.954;11.060;2023-05-07T09:50:12;99549.52;;;11.02;75.99
78751;BME280;68070;50.954;11.060;2023-05-07T09:52:57;99546.86;;;11.12;75.27
78751;BME280;68070;50.954;11.060;2023-05-07T09:55:43;99549.48;;;11.21;75.03
78751;BME280;68070;50.954;11.060;2023-05-07T09:58:28;99549.30;;;11.26;74.65
78751;BME280;68070;50.954;11.060;2023-05-07T10:01:13;99554.30;;;11.36;74.18
78751;BME280;68070;50.954;11.060;2023-05-07T10:03:59;99550.49;;;11.44;73.91
78751;BME280;68070;50.954;11.060;2023-05-07T10:06:43;99548.58;;;11.59;73.51
78751;BME280;68070;50.954;11.060;2023-05-07T10:09:29;99544.48;;;11.74;73.33
78751;BME280;68070;50.954;11.060;2023-05-07T10:12:14;99545.73;;;11.84;72.91
78751;BME280;68070;50.954;11.060;2023-05-07T10:14:59;99550.11;;;11.85;72.35
78751;BME280;68070;50.954;11.060;2023-05-07T10:17:44;99551.35;;;11.75;72.09
78751;BME280;68070;50.954;11.060;2023-05-07T10:20:29;99554.10;;;11.64;72.53
78751;BME280;68070;50.954;11.060;2023-05-07T10:23:18;99550.55;;;11.64;73.35
78751;BME280;68070;50.954;11.060;2023-05-07T10:26:06;99550.28;;;11.57;73.22
78751;BME280;68070;50.954;11.060;2023-05-07T10:28:56;99547.08;;;11.60;73.04
78751;BME280;68070;50.954;11.060;2023-05-07T10:34:50;99547.06;;;11.63;72.99
78751;BME280;68070;50.954;11.060;2023-05-07T10:37:37;99542.04;;;11.68;72.70
78751;BME280;68070;50.954;11.060;2023-05-07T10:40:22;99539.89;;;11.70;72.81
78751;BME280;68070;50.954;11.060;2023-05-07T10:43:06;99540.04;;;11.74;72.59
78751;BME280;68070;50.954;11.060;2023-05-07T10:46:16;99538.33;;;11.76;72.20
78751;BME280;68070;50.954;11.060;2023-05-07T10:52:19;99541.21;;;11.90;71.72
78751;BME280;68070;50.954;11.060;2023-05-07T10:55:26;99544.09;;;11.94;72.03
78751;BME280;68070;50.954;11.060;2023-05-07T10:58:30;99544.05;;;12.08;71.43
78751;BME280;68070;50.954;11.060;2023-05-07T11:02:10;99546.36;;;12.13;71.05
78751;BME280;68070;50.954;11.060;2023-05-07T11:05:21;99546.23;;;12.19;70.72
78751;BME280;68070;50.954;11.060;2023-05-07T11:08:10;99549.13;;;12.28;70.69
78751;BME280;68070;50.954;11.060;2023-05-07T11:11:03;99552.80;;;12.29;70.16
78751;BME280;68070;50.954;11.060;2023-05-07T11:13:58;99546.67;;;12.27;70.39
78751;BME280;68070;50.954;11.060;2023-05-07T11:16:49;99542.60;;;12.39;70.25
78751;BME280;68070;50.954;11.060;2023-05-07T11:19:51;99538.48;;;12.49;69.98
78751;BME280;68070;50.954;11.060;2023-05-07T11:22:42;99539.02;;;12.64;69.95
78751;BME280;68070;50.954;11.060;2023-05-07T11:25:59;99544.27;;;12.91;69.51
78751;BME280;68070;50.954;11.060;2023-05-07T11:28:44;99532.38;;;13.11;68.59
78751;BME280;68070;50.954;11.060;2023-05-07T11:31:28;99533.41;;;13.28;68.28
78751;BME280;68070;50.954;11.060;2023-05-07T11:34:15;99528.33;;;13.34;67.16
78751;BME280;68070;50.954;11.060;2023-05-07T11:37:05;99530.51;;;13.38;67.71
78751;BME280;68070;50.954;11.060;2023-05-07T11:40:07;99530.95;;;13.66;67.25
78751;BME280;68070;50.954;11.060;2023-05-07T11:42:51;99535.52;;;13.74;66.25
78751;BME280;68070;50.954;11.060;2023-05-07T11:45:36;99535.39;;;13.82;66.87
78751;BME280;68070;50.954;11.060;2023-05-07T11:48:21;99535.66;;;13.88;65.71
78751;BME280;68070;50.954;11.060;2023-05-07T11:51:08;99540.78;;;13.68;64.91
78751;BME280;68070;50.954;11.060;2023-05-07T11:53:55;99545.64;;;13.70;65.72
78751;BME280;68070;50.954;11.060;2023-05-07T11:56:39;99542.95;;;13.75;64.40
78751;BME280;68070;50.954;11.060;2023-05-07T11:59:24;99544.56;;;13.68;64.95
78751;BME280;68070;50.954;11.060;2023-05-07T12:02:08;99540.68;;;13.67;64.50
78751;BME280;68070;50.954;11.060;2023-05-07T12:04:53;99541.85;;;13.75;64.74
78751;BME280;68070;50.954;11.060;2023-05-07T12:07:37;99543.09;;;13.87;64.78
78751;BME280;68070;50.954;11.060;2023-05-07T12:10:22;99542.53;;;13.93;64.65
78751;BME280;68070;50.954;11.060;2023-05-07T12:13:20;99540.73;;;13.98;64.43
78751;BME280;68070;50.954;11.060;2023-05-07T12:16:06;99547.36;;;13.96;64.47
78751;BME280;68070;50.954;11.060;2023-05-07T12:18:51;99552.65;;;14.08;64.62
78751;BME280;68070;50.954;11.060;2023-05-07T12:21:37;99550.22;;;13.89;63.73
78751;BME280;68070;50.954;11.060;2023-05-07T12:24:21;99555.12;;;13.70;64.34
78751;BME280;68070;50.954;11.060;2023-05-07T12:27:05;99553.98;;;13.73;64.72
78751;BME280;68070;50.954;11.060;2023-05-07T12:29:50;99559.27;;;13.49;64.36
78751;BME280;68070;50.954;11.060;2023-05-07T12:32:36;99562.95;;;13.44;64.85
78751;BME280;68070;50.954;11.060;2023-05-07T12:35:31;99563.03;;;13.52;65.22
78751;BME280;68070;50.954;11.060;2023-05-07T12:38:17;99559.20;;;13.66;64.30
78751;BME280;68070;50.954;11.060;2023-05-07T12:41:02;99560.04;;;13.78;64.42
78751;BME280;68070;50.954;11.060;2023-05-07T12:43:46;99558.73;;;13.88;63.55
78751;BME280;68070;50.954;11.060;2023-05-07T12:46:31;99553.64;;;13.80;63.43
78751;BME280;68070;50.954;11.060;2023-05-07T12:49:15;99558.04;;;13.88;62.91
78751;BME280;68070;50.954;11.060;2023-05-07T12:52:00;99554.56;;;13.93;62.49
78751;BME280;68070;50.954;11.060;2023-05-07T12:54:45;99555.89;;;13.88;62.77
78751;BME280;68070;50.954;11.060;2023-05-07T12:57:29;99557.69;;;13.76;62.98
78751;BME280;68070;50.954;11.060;2023-05-07T13:00:14;99552.56;;;13.84;63.20
78751;BME280;68070;50.954;11.060;2023-05-07T13:02:58;99552.45;;;14.03;62.82
78751;BME280;68070;50.954;11.060;2023-05-07T13:05:43;99549.27;;;14.14;62.07
78751;BME280;68070;50.954;11.060;2023-05-07T13:08:31;99552.81;;;14.17;61.81
78751;BME280;68070;50.954;11.060;2023-05-07T13:11:16;99551.48;;;14.29;61.94
78751;BME280;68070;50.954;11.060;2023-05-07T13:14:00;99547.95;;;14.52;61.42
78751;BME280;68070;50.954;11.060;2023-05-07T13:16:44;99540.05;;;14.99;60.78
78751;BME280;68070;50.954;11.060;2023-05-07T13:19:29;99545.40;;;15.59;59.33
78751;BME280;68070;50.954;11.060;2023-05-07T13:22:13;99546.09;;;15.96;56.68
78751;BME280;68070;50.954;11.060;2023-05-07T13:24:58;99547.21;;;16.27;56.37
78751;BME280;68070;50.954;11.060;2023-05-07T13:27:42;99541.98;;;16.53;55.66
78751;BME280;68070;50.954;11.060;2023-05-07T13:30:27;99541.15;;;16.69;54.75
78751;BME280;68070;50.954;11.060;2023-05-07T13:33:11;99543.32;;;16.77;54.44
78751;BME280;68070;50.954;11.060;2023-05-07T13:35:55;99540.55;;;16.85;54.78
78751;BME280;68070;50.954;11.060;2023-05-07T13:38:41;99538.96;;;16.92;53.90
78751;BME280;68070;50.954;11.060;2023-05-07T13:41:25;99532.43;;;16.95;54.24
78751;BME280;68070;50.954;11.060;2023-05-07T13:44:09;99533.23;;;16.69;53.42
78751;BME280;68070;50.954;11.060;2023-05-07T13:46:54;99532.64;;;16.79;53.79
78751;BME280;68070;50.954;11.060;2023-05-07T13:49:38;99528.98;;;16.66;53.67
78751;BME280;68070;50.954;11.060;2023-05-07T13:52:23;99518.38;;;16.54;54.12
78751;BME280;68070;50.954;11.060;2023-05-07T13:55:07;99525.59;;;16.38;55.00
78751;BME280;68070;50.954;11.060;2023-05-07T13:57:55;99524.45;;;16.13;54.90
78751;BME280;68070;50.954;11.060;2023-05-07T14:00:40;99524.45;;;15.75;55.51
78751;BME280;68070;50.954;11.060;2023-05-07T14:03:24;99526.60;;;15.56;55.75
78751;BME280;68070;50.954;11.060;2023-05-07T14:06:09;99526.06;;;15.33;56.37
78751;BME280;68070;50.954;11.060;2023-05-07T14:08:53;99524.25;;;15.38;56.65
78751;BME280;68070;50.954;11.060;2023-05-07T14:11:37;99526.00;;;15.36;57.06
78751;BME280;68070;50.954;11.060;2023-05-07T14:14:22;99528.51;;;15.22;57.28
78751;BME280;68070;50.954;11.060;2023-05-07T14:17:06;99527.79;;;14.84;57.64
78751;BME280;68070;50.954;11.060;2023-05-07T14:19:53;99529.61;;;14.60;58.36
78751;BME280;68070;50.954;11.060;2023-05-07T14:22:38;99524.39;;;14.40;58.78
78751;BME280;68070;50.954;11.060;2023-05-07T14:25:23;99524.70;;;14.32;59.24
78751;BME280;68070;50.954;11.060;2023-05-07T14:28:08;99517.25;;;14.49;59.80
78751;BME280;68070;50.954;11.060;2023-05-07T14:30:52;99515.40;;;14.75;58.90
78751;BME280;68070;50.954;11.060;2023-05-07T14:33:37;99511.80;;;14.97;58.53
78751;BME280;68070;50.954;11.060;2023-05-07T14:36:21;99513.29;;;15.28;57.81
78751;BME280;68070;50.954;11.060;2023-05-07T14:39:06;99512.33;;;15.51;57.59